createdAt,value
2022-11-27T00:01:17.904Z,15.69
2022-11-27T00:04:19.960Z,15.51
2022-11-27T00:07:21.996Z,15.53
2022-11-27T00:10:24.211Z,15.54
2022-11-27T00:13:26.194Z,15.31
2022-11-27T00:16:29.079Z,15.45
2022-11-27T00:19:31.235Z,15.26
2022-11-27T00:22:33.297Z,15.32
2022-11-27T00:25:35.395Z,15.23
2022-11-27T00:28:38.207Z,15.39
2022-11-27T00:31:40.282Z,15.30
2022-11-27T00:34:42.516Z,15.22
2022-11-27T00:37:44.719Z,15.18
2022-11-27T00:40:49.777Z,14.90
2022-11-27T00:43:53.133Z,15.13
2022-11-27T00:46:55.552Z,14.76
2022-11-27T00:49:57.903Z,14.87
2022-11-27T00:53:00.096Z,15.04
2022-11-27T00:56:02.450Z,14.98
2022-11-27T00:59:06.449Z,14.84
2022-11-27T01:02:08.656Z,14.88
2022-11-27T01:05:10.870Z,14.94
2022-11-27T01:08:12.943Z,14.76
2022-11-27T01:11:26.846Z,14.66
2022-11-27T01:14:28.937Z,14.67
2022-11-27T01:17:31.157Z,14.50
2022-11-27T01:20:33.398Z,14.46
2022-11-27T01:23:35.599Z,14.34
2022-11-27T01:26:37.625Z,14.44
2022-11-27T01:29:39.794Z,14.45
2022-11-27T01:32:41.824Z,14.36
2022-11-27T01:35:43.893Z,14.18
2022-11-27T01:38:45.926Z,14.30
2022-11-27T01:41:49.264Z,14.47
2022-11-27T01:44:54.431Z,14.57
2022-11-27T01:48:03.459Z,14.51
2022-11-27T01:51:07.023Z,14.54
2022-11-27T01:54:10.659Z,14.56
2022-11-27T01:57:18.216Z,14.46
2022-11-27T02:00:21.328Z,14.36
2022-11-27T02:03:23.818Z,14.30
2022-11-27T02:06:26.178Z,14.00
2022-11-27T02:09:30.221Z,13.97
2022-11-27T02:12:41.021Z,13.77
2022-11-27T02:16:19.132Z,13.92
2022-11-27T02:19:39.660Z,13.86
2022-11-27T02:23:23.978Z,13.94
2022-11-27T02:26:43.904Z,13.86
2022-11-27T02:29:50.298Z,13.86
2022-11-27T02:32:59.501Z,14.02
2022-11-27T02:36:10.122Z,13.93
2022-11-27T02:39:18.908Z,14.05
2022-11-27T02:42:22.030Z,14.10
2022-11-27T02:45:28.723Z,14.06
2022-11-27T02:48:38.946Z,13.99
2022-11-27T02:51:46.850Z,13.90
2022-11-27T02:54:52.361Z,13.58
2022-11-27T02:57:57.702Z,13.80
2022-11-27T03:01:01.192Z,14.00
2022-11-27T03:04:08.854Z,13.80
2022-11-27T03:07:31.127Z,13.99
2022-11-27T03:10:43.851Z,14.04
2022-11-27T03:13:56.113Z,14.01
2022-11-27T03:17:16.842Z,14.19
2022-11-27T03:20:41.415Z,14.12
2022-11-27T03:23:43.485Z,14.14
2022-11-27T03:26:45.731Z,14.09
2022-11-27T03:29:59.638Z,14.10
2022-11-27T03:33:02.664Z,14.08
2022-11-27T03:36:14.694Z,14.07
2022-11-27T03:39:17.425Z,14.07
2022-11-27T03:42:30.789Z,14.02
2022-11-27T03:45:43.731Z,14.06
2022-11-27T03:49:18.781Z,14.01
2022-11-27T03:52:28.218Z,14.06
2022-11-27T03:56:09.987Z,13.96
2022-11-27T03:59:25.722Z,14.00
2022-11-27T04:02:31.935Z,14.06
2022-11-27T04:05:33.865Z,14.04
2022-11-27T04:08:36.266Z,14.01
2022-11-27T04:11:38.385Z,14.08
2022-11-27T04:14:40.570Z,14.05
2022-11-27T04:17:42.762Z,14.02
2022-11-27T04:20:44.922Z,13.97
2022-11-27T04:23:47.039Z,14.04
2022-11-27T04:26:49.063Z,14.05
2022-11-27T04:29:51.085Z,14.06
2022-11-27T04:32:53.140Z,13.81
2022-11-27T04:35:56.082Z,14.02
2022-11-27T04:38:58.151Z,14.09
2022-11-27T04:42:00.223Z,14.10
2022-11-27T04:45:02.161Z,14.08
2022-11-27T04:48:05.058Z,14.10
2022-11-27T04:51:07.154Z,14.19
2022-11-27T04:54:09.205Z,14.12
2022-11-27T04:57:11.245Z,14.66
2022-11-27T05:00:13.716Z,15.50
2022-11-27T05:03:16.272Z,16.38
2022-11-27T05:06:18.530Z,17.39
2022-11-27T05:09:20.844Z,17.54
2022-11-27T05:12:22.990Z,17.15
2022-11-27T05:15:24.926Z,17.73
2022-11-27T05:18:27.366Z,18.53
2022-11-27T05:21:30.671Z,18.53
2022-11-27T05:24:32.782Z,17.96
2022-11-27T05:27:35.798Z,18.76
2022-11-27T05:30:37.896Z,18.69
2022-11-27T05:33:39.893Z,18.23
2022-11-27T05:36:42.656Z,18.12
2022-11-27T05:39:44.596Z,18.46
2022-11-27T05:42:46.528Z,18.51
2022-11-27T05:45:48.631Z,18.22
2022-11-27T05:48:50.732Z,17.95
2022-11-27T05:51:52.794Z,18.17
2022-11-27T05:54:56.530Z,18.30
2022-11-27T05:57:58.503Z,18.44
2022-11-27T06:01:01.385Z,18.35
2022-11-27T06:04:03.334Z,18.31
2022-11-27T06:07:05.413Z,18.26
2022-11-27T06:10:07.990Z,18.18
2022-11-27T06:13:09.982Z,18.16
2022-11-27T06:16:20.955Z,18.18
2022-11-27T06:19:23.423Z,18.04
2022-11-27T06:22:25.558Z,17.85
2022-11-27T06:25:34.887Z,17.62
2022-11-27T06:28:37.063Z,17.60
2022-11-27T06:31:39.963Z,17.43
2022-11-27T06:34:42.473Z,17.28
2022-11-27T06:37:44.675Z,17.30
2022-11-27T06:40:46.669Z,17.28
2022-11-27T06:43:49.216Z,17.17
2022-11-27T06:46:54.718Z,16.89
2022-11-27T06:49:58.987Z,16.98
2022-11-27T06:53:01.419Z,16.79
2022-11-27T06:56:05.874Z,16.91
2022-11-27T06:59:08.415Z,16.71
2022-11-27T07:02:15.066Z,16.51
2022-11-27T07:05:17.189Z,16.52
2022-11-27T07:08:19.410Z,16.51
2022-11-27T07:11:24.082Z,16.44
2022-11-27T07:14:26.277Z,16.52
2022-11-27T07:17:28.318Z,16.67
2022-11-27T07:20:30.395Z,16.67
2022-11-27T07:23:32.501Z,16.65
2022-11-27T07:26:34.662Z,16.62
2022-11-27T07:29:36.643Z,16.44
2022-11-27T07:32:38.714Z,16.71
2022-11-27T07:35:43.881Z,16.78
2022-11-27T07:38:46.890Z,16.62
2022-11-27T07:41:48.888Z,16.44
2022-11-27T07:44:51.124Z,16.39
2022-11-27T07:47:53.253Z,16.30
2022-11-27T07:50:55.246Z,16.25
2022-11-27T07:53:57.482Z,16.35
2022-11-27T07:56:59.439Z,16.34
2022-11-27T08:00:01.484Z,16.40
2022-11-27T08:03:06.832Z,16.57
2022-11-27T08:06:17.857Z,16.49
2022-11-27T08:09:20.025Z,16.46
2022-11-27T08:12:23.524Z,16.51
2022-11-27T08:15:25.560Z,16.37
2022-11-27T08:18:27.680Z,16.58
2022-11-27T08:21:30.775Z,16.63
2022-11-27T08:24:33.657Z,16.51
2022-11-27T08:27:36.635Z,16.59
2022-11-27T08:30:38.678Z,17.04
2022-11-27T08:33:41.258Z,17.27
2022-11-27T08:36:43.233Z,17.36
2022-11-27T08:39:45.269Z,17.29
2022-11-27T08:42:47.393Z,17.40
2022-11-27T08:45:49.768Z,17.39
2022-11-27T08:48:51.904Z,17.39
2022-11-27T08:51:53.943Z,17.24
2022-11-27T08:54:58.053Z,17.29
2022-11-27T08:58:00.233Z,17.34
2022-11-27T09:01:18.508Z,17.09
2022-11-27T09:04:20.635Z,17.23
2022-11-27T09:07:22.878Z,17.18
2022-11-27T09:10:25.389Z,17.13
2022-11-27T09:13:28.255Z,17.10
2022-11-27T09:16:30.987Z,17.21
2022-11-27T09:19:33.374Z,17.28
2022-11-27T09:22:36.589Z,17.44
2022-11-27T09:25:40.986Z,17.57
2022-11-27T09:28:44.665Z,17.60
2022-11-27T09:31:46.866Z,17.65
2022-11-27T09:34:49.013Z,17.73
2022-11-27T09:37:51.079Z,17.65
2022-11-27T09:41:01.792Z,17.44
2022-11-27T09:44:48.623Z,17.26
2022-11-27T09:47:55.713Z,17.12
2022-11-27T09:50:59.651Z,16.96
2022-11-27T09:54:10.223Z,17.08
2022-11-27T09:57:16.905Z,17.14
2022-11-27T10:00:20.843Z,17.16
2022-11-27T10:03:28.190Z,17.15
2022-11-27T10:06:48.328Z,17.03
2022-11-27T10:09:56.666Z,17.15
2022-11-27T10:13:17.196Z,17.14
2022-11-27T10:16:24.790Z,17.06
2022-11-27T10:19:51.667Z,16.89
2022-11-27T10:23:19.765Z,16.83
2022-11-27T10:26:50.951Z,16.77
2022-11-27T10:29:54.899Z,16.86
2022-11-27T10:32:58.790Z,16.73
2022-11-27T10:36:01.454Z,16.53
2022-11-27T10:39:07.176Z,16.62
2022-11-27T10:42:54.130Z,16.49
2022-11-27T10:46:09.846Z,16.36
2022-11-27T10:49:12.007Z,16.47
2022-11-27T10:52:16.673Z,16.45
2022-11-27T10:55:38.165Z,16.38
2022-11-27T10:58:47.325Z,16.07
2022-11-27T11:01:51.093Z,16.09
2022-11-27T11:05:16.232Z,16.11
2022-11-27T11:08:19.529Z,16.08
2022-11-27T11:11:26.702Z,16.12
2022-11-27T11:14:28.764Z,15.96
2022-11-27T11:17:37.870Z,15.93
2022-11-27T11:20:47.165Z,15.99
2022-11-27T11:24:01.586Z,16.34
2022-11-27T11:27:15.275Z,16.24
2022-11-27T11:30:26.450Z,16.25
2022-11-27T11:33:28.810Z,16.24
2022-11-27T11:36:31.108Z,15.89
2022-11-27T11:39:47.721Z,15.77
2022-11-27T11:43:05.640Z,15.66
2022-11-27T11:46:17.818Z,15.60
2022-11-27T11:49:26.603Z,15.66
2022-11-27T11:53:17.148Z,15.57
2022-11-27T11:56:22.871Z,15.52
2022-11-27T12:00:01.474Z,15.54
2022-11-27T12:03:32.468Z,15.51
2022-11-27T12:07:01.055Z,15.69
2022-11-27T12:10:21.513Z,15.63
2022-11-27T12:13:42.929Z,15.59
2022-11-27T12:17:12.275Z,15.33
2022-11-27T12:20:24.337Z,15.38
2022-11-27T12:24:05.607Z,15.28
2022-11-27T12:27:32.135Z,15.23
2022-11-27T12:30:55.779Z,15.30
2022-11-27T12:34:19.516Z,15.17
2022-11-27T12:37:21.607Z,15.15
2022-11-27T12:40:43.425Z,15.07
2022-11-27T12:43:52.426Z,15.14
2022-11-27T12:47:21.480Z,15.16
2022-11-27T12:50:56.625Z,15.13
2022-11-27T12:54:06.049Z,15.30
2022-11-27T12:57:16.678Z,15.27
2022-11-27T13:00:21.849Z,15.05
2022-11-27T13:03:55.914Z,15.24
2022-11-27T13:07:21.674Z,15.18
2022-11-27T13:10:31.420Z,15.29
2022-11-27T13:13:54.987Z,15.19
2022-11-27T13:17:03.198Z,15.26
2022-11-27T13:20:14.792Z,15.31
2022-11-27T13:23:17.329Z,15.15
2022-11-27T13:26:32.990Z,15.27
2022-11-27T13:29:59.863Z,15.43
2022-11-27T13:33:03.862Z,15.63
2022-11-27T13:36:09.325Z,15.64
2022-11-27T13:39:30.172Z,15.55
2022-11-27T13:42:36.288Z,15.54
2022-11-27T13:45:38.462Z,15.50
2022-11-27T13:48:44.232Z,15.71
2022-11-27T13:51:46.368Z,15.69
2022-11-27T13:55:00.510Z,15.86
2022-11-27T13:58:04.273Z,15.91
2022-11-27T14:01:32.629Z,15.94
2022-11-27T14:04:35.530Z,15.93
2022-11-27T14:07:52.641Z,16.01
2022-11-27T14:10:59.433Z,16.07
2022-11-27T14:14:12.571Z,16.02
2022-11-27T14:17:34.059Z,16.31
2022-11-27T14:20:58.489Z,16.40
2022-11-27T14:24:06.034Z,16.45
2022-11-27T14:27:23.277Z,17.65
2022-11-27T14:30:36.217Z,17.22
2022-11-27T14:34:07.610Z,16.90
2022-11-27T14:37:07.771Z,16.61
2022-11-27T14:40:35.468Z,16.59
2022-11-27T14:43:38.150Z,16.50
2022-11-27T14:46:42.072Z,16.46
2022-11-27T14:49:46.253Z,16.21
2022-11-27T14:52:55.375Z,16.08
2022-11-27T14:56:01.423Z,15.76
2022-11-27T14:59:04.543Z,15.69
2022-11-27T15:02:06.689Z,15.69
2022-11-27T15:05:20.721Z,15.60
2022-11-27T15:08:24.743Z,15.50
2022-11-27T15:11:54.094Z,15.26
2022-11-27T15:15:11.967Z,15.28
2022-11-27T15:18:20.634Z,15.23
2022-11-27T15:21:28.154Z,15.15
2022-11-27T15:24:41.564Z,15.06
2022-11-27T15:27:48.329Z,15.06
2022-11-27T15:30:51.598Z,15.04
2022-11-27T15:34:39.076Z,15.09
2022-11-27T15:41:42.291Z,17.22
2022-11-27T15:44:50.369Z,17.97
2022-11-27T15:47:58.874Z,18.41
2022-11-27T15:51:00.835Z,18.76
2022-11-27T15:54:04.674Z,18.94
2022-11-27T15:57:06.719Z,19.00
2022-11-27T16:00:10.263Z,19.11
2022-11-27T16:03:15.811Z,19.07
2022-11-27T16:06:21.030Z,19.07
2022-11-27T16:09:27.028Z,19.31
2022-11-27T16:12:29.212Z,19.40
2022-11-27T16:15:33.222Z,19.48
2022-11-27T16:18:37.993Z,19.51
2022-11-27T16:21:40.199Z,19.59
2022-11-27T16:24:42.655Z,19.59
2022-11-27T16:27:45.840Z,18.82
2022-11-27T16:30:50.113Z,18.32
2022-11-27T16:33:53.050Z,18.48
2022-11-27T16:36:57.791Z,18.25
2022-11-27T16:40:00.988Z,18.08
2022-11-27T16:43:04.134Z,18.21
2022-11-27T16:46:10.959Z,18.45
2022-11-27T16:49:13.605Z,19.31
2022-11-27T16:52:19.368Z,19.90
2022-11-27T16:55:22.431Z,20.49
2022-11-27T16:58:24.659Z,20.55
2022-11-27T17:01:30.085Z,20.07
2022-11-27T17:04:32.112Z,20.12
2022-11-27T17:07:34.638Z,20.12
2022-11-27T17:10:36.723Z,19.93
2022-11-27T17:13:39.528Z,19.86
2022-11-27T17:16:42.895Z,19.68
2022-11-27T17:19:47.575Z,19.53
2022-11-27T17:22:49.758Z,19.81
2022-11-27T17:25:52.084Z,19.85
2022-11-27T17:28:57.767Z,19.36
2022-11-27T17:31:59.952Z,19.14
2022-11-27T17:35:03.278Z,19.19
2022-11-27T17:38:05.828Z,19.47
2022-11-27T17:41:11.302Z,19.52
2022-11-27T17:44:14.241Z,19.50
2022-11-27T17:47:16.284Z,19.53
2022-11-27T17:50:18.424Z,19.54
2022-11-27T17:53:21.725Z,19.61
2022-11-27T17:56:24.458Z,19.56
2022-11-27T17:59:26.753Z,18.11
2022-11-27T18:02:29.525Z,17.26
2022-11-27T18:05:32.253Z,16.89
2022-11-27T18:08:34.459Z,16.57
2022-11-27T18:11:36.800Z,16.75
2022-11-27T18:14:39.321Z,16.77
2022-11-27T18:17:42.577Z,16.96
2022-11-27T18:20:44.991Z,16.95
2022-11-27T18:24:21.497Z,17.02
2022-11-27T18:27:14.866Z,17.18
2022-11-27T18:30:17.203Z,16.96
2022-11-27T18:33:19.279Z,17.04
2022-11-27T18:36:21.222Z,16.96
2022-11-27T18:39:23.604Z,16.73
2022-11-27T18:42:26.950Z,16.57
2022-11-27T18:45:33.228Z,16.30
2022-11-27T18:48:39.429Z,16.42
2022-11-27T18:51:41.587Z,16.38
2022-11-27T18:54:44.451Z,16.39
2022-11-27T18:57:46.939Z,16.37
2022-11-27T19:00:48.990Z,16.22
2022-11-27T19:03:51.309Z,16.33
2022-11-27T19:06:53.446Z,16.26
2022-11-27T19:09:56.642Z,16.34
2022-11-27T19:12:58.819Z,16.20
2022-11-27T19:16:08.906Z,16.28
2022-11-27T19:19:52.200Z,16.16
2022-11-27T19:22:38.378Z,16.19
2022-11-27T19:25:40.746Z,16.10
2022-11-27T19:28:45.419Z,15.99
2022-11-27T19:31:47.431Z,16.27
2022-11-27T19:34:50.921Z,16.11
2022-11-27T19:37:53.131Z,16.23
2022-11-27T19:40:55.833Z,16.04
2022-11-27T19:44:03.691Z,15.86
2022-11-27T19:47:06.800Z,15.78
2022-11-27T19:50:09.401Z,15.95
2022-11-27T19:53:11.941Z,15.84
2022-11-27T19:56:14.180Z,16.17
2022-11-27T19:59:17.659Z,16.42
2022-11-27T20:02:22.330Z,16.48
2022-11-27T20:05:24.511Z,16.33
2022-11-27T20:08:26.668Z,16.64
2022-11-27T20:11:34.535Z,16.78
2022-11-27T20:14:38.639Z,16.62
2022-11-27T20:17:41.849Z,16.75
2022-11-27T20:20:44.041Z,16.68
2022-11-27T20:23:47.643Z,16.75
2022-11-27T20:26:50.036Z,16.75
2022-11-27T20:29:54.810Z,16.71
2022-11-27T20:32:57.027Z,16.70
2022-11-27T20:35:59.867Z,16.57
2022-11-27T20:39:02.589Z,16.54
2022-11-27T20:42:04.927Z,16.50
2022-11-27T20:45:08.507Z,16.38
2022-11-27T20:48:11.178Z,16.28
2022-11-27T20:51:15.907Z,16.27
2022-11-27T20:54:18.358Z,16.23
2022-11-27T20:57:20.818Z,15.98
2022-11-27T21:00:23.625Z,16.01
2022-11-27T21:03:29.745Z,16.07
2022-11-27T21:06:32.944Z,15.95
2022-11-27T21:09:36.280Z,15.87
2022-11-27T21:12:38.546Z,15.88
2022-11-27T21:15:45.752Z,15.75
2022-11-27T21:18:47.895Z,15.66
2022-11-27T21:21:50.899Z,15.66
2022-11-27T21:24:53.024Z,15.74
2022-11-27T21:27:58.156Z,15.66
2022-11-27T21:31:08.596Z,15.68
2022-11-27T21:34:13.332Z,15.71
2022-11-27T21:37:15.790Z,15.74
2022-11-27T21:40:18.790Z,15.70
2022-11-27T21:43:20.895Z,15.64
2022-11-27T21:46:25.170Z,15.74
2022-11-27T21:49:27.338Z,15.82
2022-11-27T21:52:29.856Z,15.87
2022-11-27T21:55:32.027Z,15.87
2022-11-27T21:58:34.927Z,15.86
2022-11-27T22:01:37.915Z,15.86
2022-11-27T22:04:40.373Z,15.86
2022-11-27T22:07:43.096Z,15.90
2022-11-27T22:10:46.453Z,15.80
2022-11-27T22:13:48.688Z,15.91
2022-11-27T22:16:51.036Z,15.84
2022-11-27T22:19:53.356Z,15.94
2022-11-27T22:22:55.429Z,15.88
2022-11-27T22:26:05.365Z,15.68
2022-11-27T22:29:07.540Z,15.70
2022-11-27T22:32:09.501Z,15.59
2022-11-27T22:35:11.610Z,15.62
2022-11-27T22:38:13.923Z,15.61
2022-11-27T22:41:17.053Z,15.47
2022-11-27T22:44:21.088Z,15.42
2022-11-27T22:47:24.409Z,15.33
2022-11-27T22:50:27.441Z,15.29
2022-11-27T22:53:30.279Z,15.23
2022-11-27T22:56:36.525Z,15.25
2022-11-27T22:59:39.035Z,15.15
2022-11-27T23:02:42.727Z,15.08
2022-11-27T23:05:45.470Z,15.05
2022-11-27T23:08:48.820Z,15.07
2022-11-27T23:11:50.986Z,15.09
2022-11-27T23:14:53.053Z,15.22
2022-11-27T23:17:55.140Z,15.12
2022-11-27T23:20:57.194Z,15.07
2022-11-27T23:23:59.271Z,15.06
2022-11-27T23:27:01.277Z,14.98
2022-11-27T23:30:03.561Z,14.93
2022-11-27T23:33:07.486Z,14.95
2022-11-27T23:36:10.257Z,14.93
2022-11-27T23:39:13.433Z,14.82
2022-11-27T23:42:15.450Z,14.81
2022-11-27T23:45:17.514Z,14.81
2022-11-27T23:48:20.540Z,14.76
2022-11-27T23:51:26.811Z,14.69
2022-11-27T23:54:28.884Z,14.63
2022-11-27T23:57:31.050Z,14.55
